Time;durP1;ratioP1;P1;durP2;ratioP2;P2;SDS_P1;SDS_P2;PMS_P1;PMS_P2;Temp;Humidity;BMP_temperature;BMP_pressure;BME280_temperature;BME280_humidity;BME280_pressure;Samples;Min_cycle;Max_cycle;Signal;HPM_P1;HPM_P2
2021/10/24 00:00:15;;;;;;;17.40;7.28;;;;;;;;;;4997614;28;20030;-80
2021/10/24 00:02:41;;;;;;;13.40;7.10;;;;;;;;;;5000059;28;20110;-80
2021/10/24 00:05:08;;;;;;;10.45;7.47;;;;;;;;;;5000026;28;20448;-80
2021/10/24 00:07:34;;;;;;;13.15;7.75;;;;;;;;;;4998144;28;20498;-80
2021/10/24 00:10:00;;;;;;;13.65;7.35;;;;;;;;;;4998354;28;20029;-80
2021/10/24 00:12:26;;;;;;;13.15;8.00;;;;;;;;;;4998888;28;20041;-80
2021/10/24 00:14:52;;;;;;;17.27;7.03;;;;;;;;;;5014774;28;20027;-80
2021/10/24 00:17:18;;;;;;;11.93;7.28;;;;;;;;;;5000594;28;20026;-80
2021/10/24 00:19:45;;;;;;;15.48;8.00;;;;;;;;;;4998243;28;20120;-80
2021/10/24 00:22:11;;;;;;;17.20;7.18;;;;;;;;;;4999487;28;20391;-80
2021/10/24 00:24:37;;;;;;;15.45;7.85;;;;;;;;;;5000468;28;20040;-81
2021/10/24 00:27:03;;;;;;;12.73;7.20;;;;;;;;;;5005487;28;20019;-79
2021/10/24 00:29:29;;;;;;;15.05;7.18;;;;;;;;;;5019354;28;20019;-77
2021/10/24 00:31:55;;;;;;;16.10;7.60;;;;;;;;;;4996971;28;20030;-80
2021/10/24 00:34:21;;;;;;;15.20;7.10;;;;;;;;;;4997705;28;20022;-80
2021/10/24 00:36:47;;;;;;;14.25;7.75;;;;;;;;;;4999231;28;20022;-79
2021/10/24 00:39:13;;;;;;;13.15;6.95;;;;;;;;;;4997317;28;20030;-80
2021/10/24 00:41:39;;;;;;;12.10;7.38;;;;;;;;;;4998332;28;20372;-80
2021/10/24 00:44:20;;;;;;;14.05;7.50;;;;;;;;;;4997778;28;20034;-81
2021/10/24 00:46:46;;;;;;;10.70;7.15;;;;;;;;;;4994560;28;20027;-80
2021/10/24 00:49:12;;;;;;;12.70;8.18;;;;;;;;;;4995162;28;20027;-81
2021/10/24 00:51:38;;;;;;;15.27;8.07;;;;;;;;;;4994569;28;20058;-81
2021/10/24 00:54:04;;;;;;;15.77;7.97;;;;;;;;;;4994750;28;20037;-81
2021/10/24 00:56:30;;;;;;;16.58;8.30;;;;;;;;;;5010260;28;20026;-80
2021/10/24 00:58:56;;;;;;;14.25;7.15;;;;;;;;;;4998245;28;20066;-81
2021/10/24 01:01:22;;;;;;;12.10;8.38;;;;;;;;;;5012242;28;20029;-81
2021/10/24 01:03:48;;;;;;;14.07;8.50;;;;;;;;;;5003338;28;20035;-80
2021/10/24 01:06:14;;;;;;;16.58;8.15;;;;;;;;;;5015501;28;20041;-80
2021/10/24 01:08:40;;;;;;;13.65;8.00;;;;;;;;;;5000636;28;20034;-81
2021/10/24 01:11:06;;;;;;;13.65;8.27;;;;;;;;;;5000209;28;20543;-81
2021/10/24 01:13:33;;;;;;;16.88;8.85;;;;;;;;;;4997390;28;20176;-80
2021/10/24 01:16:12;;;;;;;17.75;8.60;;;;;;;;;;4997574;28;20023;-81
2021/10/24 01:18:38;;;;;;;17.00;8.82;;;;;;;;;;4997011;28;20043;-80
2021/10/24 01:21:04;;;;;;;15.60;8.15;;;;;;;;;;5012855;28;20030;-80
2021/10/24 01:23:31;;;;;;;16.85;8.18;;;;;;;;;;4997904;28;20026;-80
2021/10/24 01:25:58;;;;;;;15.75;8.13;;;;;;;;;;5013570;28;20101;-80
2021/10/24 01:28:24;;;;;;;18.48;8.73;;;;;;;;;;4998988;28;20022;-80
2021/10/24 01:30:52;;;;;;;14.60;7.60;;;;;;;;;;4997895;28;20023;-80
2021/10/24 01:33:18;;;;;;;11.02;6.47;;;4.70;99.90;;;;;;4997762;28;20022;-81
2021/10/24 01:35:53;;;;;;;15.68;7.90;;;3.50;99.90;;;;;;4997682;28;20033;-79
2021/10/24 01:38:20;;;;;;;12.93;7.65;;;4.10;99.90;;;;;;4988082;28;20027;-81
2021/10/24 01:40:46;;;;;;;15.45;7.60;;;3.30;99.90;;;;;;5001561;28;20049;-79
2021/10/24 01:43:11;;;;;;;13.07;7.57;;;3.20;99.90;;;;;;5001642;28;20038;-80
2021/10/24 01:45:37;;;;;;;13.13;7.57;;;3.10;99.90;;;;;;5001726;28;20023;-80
2021/10/24 01:48:04;;;;;;;14.57;8.20;;;3.00;99.90;;;;;;4985538;28;20073;-80
2021/10/24 01:50:30;;;;;;;16.77;8.52;;;2.80;99.90;;;;;;5000600;28;20033;-80
2021/10/24 01:52:56;;;;;;;14.13;7.93;;;4.60;99.90;;;;;;5002025;28;20023;-81
2021/10/24 01:55:21;;;;;;;16.25;7.78;;;3.00;99.90;;;;;;5000523;28;20041;-81
2021/10/24 01:57:52;;;;;;;11.30;7.00;;;2.90;99.90;;;;;;4999835;28;20035;-78
2021/10/24 02:00:19;;;;;;;10.82;7.68;;;2.70;99.90;;;;;;5015817;28;20050;-78
2021/10/24 02:02:45;;;;;;;12.48;7.63;;;2.50;99.90;;;;;;5016577;28;20080;-78
2021/10/24 02:05:11;;;;;;;11.75;7.93;;;2.40;99.90;;;;;;5011008;28;20487;-80
2021/10/24 02:07:37;;;;;;;15.75;7.70;;;2.40;99.90;;;;;;5000354;28;20105;-80
2021/10/24 02:10:05;;;;;;;14.98;8.43;;;2.40;99.90;;;;;;4982810;28;20037;-80
2021/10/24 02:12:31;;;;;;;15.57;8.20;;;2.40;99.90;;;;;;5000633;28;20557;-80
2021/10/24 02:14:57;;;;;;;17.38;9.32;;;2.40;99.90;;;;;;4999491;28;20093;-80
2021/10/24 02:17:23;;;;;;;21.00;9.65;;;2.30;99.90;;;;;;5000448;28;20026;-79
2021/10/24 02:19:48;;;;;;;14.73;9.45;;;2.40;99.90;;;;;;4998937;28;20041;-80
2021/10/24 02:22:14;;;;;;;12.18;8.10;;;2.60;99.90;;;;;;4998773;28;20037;-80
2021/10/24 02:24:41;;;;;;;15.50;9.32;;;2.30;99.90;;;;;;5029595;22;20045;-82
2021/10/24 02:27:07;;;;;;;16.30;8.27;;;2.40;99.90;;;;;;5041308;28;20025;-81
2021/10/24 02:29:32;;;;;;;16.63;8.18;;;2.80;99.90;;;;;;5040067;28;20052;-82
2021/10/24 02:31:58;;;;;;;16.70;8.45;;;;;;;;;;5039762;28;20029;-82
2021/10/24 02:34:24;;;;;;;17.95;8.07;;;;;;;;;;5039423;28;20111;-81
2021/10/24 02:36:50;;;;;;;11.80;7.43;;;2.20;99.90;;;;;;5040016;28;20482;-81
2021/10/24 02:39:16;;;;;;;12.18;8.00;;;2.20;99.90;;;;;;5021088;28;20022;-80
2021/10/24 02:41:41;;;;;;;11.40;8.30;;;2.10;99.90;;;;;;5021384;28;20037;-81
2021/10/24 02:44:07;;;;;;;15.07;8.18;;;2.00;99.90;;;;;;5021682;28;20041;-80
2021/10/24 02:46:33;;;;;;;11.93;8.50;;;2.00;99.90;;;;;;5020527;28;20041;-83
2021/10/24 02:48:59;;;;;;;19.23;7.65;;;2.10;99.90;;;;;;5021967;28;20022;-82
2021/10/24 02:51:24;;;;;;;15.75;8.15;;;2.00;99.90;;;;;;5024193;28;20026;-82
2021/10/24 02:53:50;;;;;;;21.30;8.30;;;2.00;99.90;;;;;;5022078;28;20041;-81
2021/10/24 02:56:16;;;;;;;15.00;9.18;;;1.90;99.90;;;;;;5021968;28;20060;-81
2021/10/24 02:58:41;;;;;;;18.92;8.23;;;2.30;99.90;;;;;;5017312;28;20518;-81
2021/10/24 03:01:07;;;;;;;19.98;8.27;;;2.00;99.90;;;;;;5018437;28;20034;-81
2021/10/24 03:03:32;;;;;;;16.08;8.82;;;2.20;99.90;;;;;;5019517;28;20026;-83
2021/10/24 03:05:58;;;;;;;15.65;9.10;;;2.40;99.90;;;;;;5018819;28;20273;-82
2021/10/24 03:08:24;;;;;;;19.02;9.32;;;2.50;99.90;;;;;;5020253;28;20028;-83
2021/10/24 03:10:49;;;;;;;19.63;9.52;;;2.50;99.90;;;;;;5018746;28;20103;-83
2021/10/24 03:13:15;;;;;;;11.73;8.70;;;2.50;99.90;;;;;;5018695;28;20030;-80
2021/10/24 03:15:41;;;;;;;13.85;8.68;;;2.60;99.90;;;;;;5018881;28;20033;-81
2021/10/24 03:18:07;;;;;;;19.25;8.40;;;3.60;99.90;;;;;;5035090;28;20030;-81
2021/10/24 03:20:33;;;;;;;18.80;9.40;;;2.80;99.90;;;;;;5038009;28;20087;-83
2021/10/24 03:22:59;;;;;;;15.93;8.48;;;2.70;99.90;;;;;;5038514;28;20061;-83
2021/10/24 03:25:25;;;;;;;20.77;8.55;;;2.90;99.90;;;;;;5023159;28;20045;-82
2021/10/24 03:27:51;;;;;;;13.90;7.53;;;2.90;99.90;;;;;;5017881;28;20078;-83
2021/10/24 03:30:17;;;;;;;15.48;7.50;;;3.00;99.90;;;;;;5016708;28;20514;-82
2021/10/24 03:32:43;;;;;;;18.05;7.57;;;3.10;99.90;;;;;;5016077;28;20506;-83
2021/10/24 03:35:09;;;;;;;11.68;6.90;;;2.90;99.90;;;;;;5017692;28;20033;-81
2021/10/24 03:37:35;;;;;;;12.50;7.03;;;2.90;99.90;;;;;;5017065;28;20018;-80
2021/10/24 03:40:00;;;;;;;11.50;7.00;;;3.00;99.90;;;;;;5025396;28;20053;-81
2021/10/24 03:42:26;;;;;;;13.13;7.15;;;3.00;99.90;;;;;;5035802;28;20079;-81
2021/10/24 03:44:53;;;;;;;12.57;7.43;;;3.20;99.90;;;;;;5036927;28;20021;-80
2021/10/24 03:47:19;;;;;;;15.02;7.28;;;2.90;99.90;;;;;;5037413;28;20025;-81
2021/10/24 03:49:44;;;;;;;14.70;7.70;;;2.90;99.90;;;;;;5037033;28;20022;-81
2021/10/24 03:52:10;;;;;;;15.60;7.07;;;2.80;99.90;;;;;;5037274;28;20068;-80
2021/10/24 03:54:36;;;;;;;10.50;6.80;;;2.90;99.90;;;;;;5037697;28;20032;-80
2021/10/24 03:57:01;;;;;;;12.38;6.75;;;2.80;99.90;;;;;;5030885;28;20049;-82
2021/10/24 03:59:27;;;;;;;15.00;7.03;;;2.90;99.90;;;;;;5017564;28;20041;-83
2021/10/24 04:01:53;;;;;;;13.40;6.80;;;2.80;99.90;;;;;;5015618;28;20440;-82
2021/10/24 04:04:18;;;;;;;13.73;7.18;;;2.90;99.90;;;;;;5018549;28;20061;-81
2021/10/24 04:06:44;;;;;;;15.45;7.80;;;3.10;99.90;;;;;;5018489;28;20026;-80
2021/10/24 04:09:10;;;;;;;14.02;7.07;;;3.10;99.90;;;;;;5026614;28;20069;-80
2021/10/24 04:11:36;;;;;;;14.02;7.53;;;3.10;99.90;;;;;;5024116;28;20058;-81
2021/10/24 04:14:02;;;;;;;12.82;6.50;;;3.10;99.90;;;;;;5021162;28;20037;-82
2021/10/24 04:16:28;;;;;;;15.13;6.95;;;3.00;99.90;;;;;;5020589;28;20034;-82
2021/10/24 04:18:53;;;;;;;10.35;6.82;;;3.00;99.90;;;;;;5021258;28;20117;-82
2021/10/24 04:21:19;;;;;;;9.23;6.53;;;3.00;99.90;;;;;;5019963;28;20080;-83
2021/10/24 04:23:45;;;;;;;11.55;6.47;;;3.00;99.90;;;;;;5021233;28;20029;-81
2021/10/24 04:26:10;;;;;;;10.43;6.22;;;5.10;99.90;;;;;;5021921;28;20077;-81
2021/10/24 04:28:36;;;;;;;12.80;6.90;;;3.00;99.90;;;;;;5020566;28;20099;-81
2021/10/24 04:31:02;;;;;;;14.20;7.47;;;2.80;99.90;;;;;;5019935;28;20037;-81
2021/10/24 04:33:27;;;;;;;16.45;7.43;;;2.80;99.90;;;;;;5016535;28;20036;-81
2021/10/24 04:35:53;;;;;;;16.67;7.80;;;2.70;99.90;;;;;;5017112;28;20058;-81
2021/10/24 04:38:18;;;;;;;9.98;6.70;;;2.90;99.90;;;;;;5017419;28;20037;-81
2021/10/24 04:40:44;;;;;;;14.57;6.97;;;2.80;99.90;;;;;;5016904;28;20022;-81
2021/10/24 04:43:14;;;;;;;13.95;6.25;;;5.00;99.90;;;;;;5036938;28;20026;-81
2021/10/24 04:45:40;;;;;;;12.15;6.82;;;2.70;99.90;;;;;;5036516;28;20394;-81
2021/10/24 04:48:06;;;;;;;10.80;6.20;;;2.90;99.90;;;;;;5037694;28;20432;-82
2021/10/24 04:50:32;;;;;;;12.65;7.18;;;2.70;99.90;;;;;;5037402;28;20049;-82
2021/10/24 04:52:57;;;;;;;13.30;6.93;;;2.70;99.90;;;;;;5035607;28;20029;-82
2021/10/24 04:55:24;;;;;;;11.90;6.68;;;2.60;99.90;;;;;;5035382;28;20038;-82
2021/10/24 04:57:49;;;;;;;16.25;7.30;;;2.50;99.90;;;;;;5035401;28;20029;-83
2021/10/24 05:00:15;;;;;;;12.48;7.07;;;2.50;99.90;;;;;;5034511;28;20103;-82
2021/10/24 05:02:40;;;;;;;12.77;7.30;;;2.50;99.90;;;;;;5031355;28;20116;-82
2021/10/24 05:05:08;;;;;;;12.18;6.97;;;2.60;99.90;;;;;;5015394;28;20022;-81
2021/10/24 05:07:34;;;;;;;14.35;7.60;;;2.50;99.90;;;;;;5015350;28;20129;-81
2021/10/24 05:09:59;;;;;;;12.63;7.68;;;2.30;99.90;;;;;;5024547;28;20061;-82
2021/10/24 05:12:25;;;;;;;10.38;6.85;;;3.00;99.90;;;;;;5035432;28;20052;-81
2021/10/24 05:14:50;;;;;;;13.38;7.13;;;2.30;99.90;;;;;;4995526;28;20077;-82
2021/10/24 05:17:16;;;;;;;14.57;6.53;;;2.10;99.90;;;;;;4994399;28;20392;-81
2021/10/24 05:19:42;;;;;;;11.82;7.22;;;2.20;99.90;;;;;;5009750;28;20053;-80
2021/10/24 05:22:08;;;;;;;12.70;7.18;;;3.10;99.90;;;;;;5011983;28;20030;-82
2021/10/24 05:24:34;;;;;;;13.82;6.85;;;2.10;99.90;;;;;;5011295;28;20026;-82
2021/10/24 05:26:59;;;;;;;14.02;7.35;;;2.30;99.90;;;;;;4994651;28;20030;-82
2021/10/24 05:29:25;;;;;;;12.40;6.45;;;2.80;99.90;;;;;;5011592;28;20040;-82
2021/10/24 05:31:50;;;;;;;15.40;6.75;;;3.30;99.90;;;;;;5010206;28;20026;-80
2021/10/24 05:34:16;;;;;;;19.55;12.23;;;2.40;99.90;;;;;;5012770;28;20124;-82
2021/10/24 05:36:43;;;;;;;15.13;9.55;;;2.40;99.90;;;;;;5011129;28;20030;-82
2021/10/24 05:39:09;;;;;;;14.07;8.27;;;2.40;99.90;;;;;;5040209;28;20029;-79
2021/10/24 05:41:35;;;;;;;12.73;7.20;;;2.40;99.90;;;;;;5015888;28;20030;-81
2021/10/24 05:44:01;;;;;;;16.67;7.72;;;2.30;99.90;;;;;;5016786;28;20030;-84
2021/10/24 05:46:27;;;;;;;12.27;7.20;;;3.40;99.90;;;;;;5018457;28;20028;-81
2021/10/24 05:48:53;;;;;;;10.18;6.38;;;2.50;99.90;;;;;;5018998;28;20037;-81
2021/10/24 05:51:18;;;;;;;11.88;6.53;;;2.30;99.90;;;;;;5016556;28;20045;-84
2021/10/24 05:53:44;;;;;;;12.20;7.05;;;2.50;99.90;;;;;;5018324;28;20034;-83
2021/10/24 05:56:10;;;;;;;16.15;7.30;;;2.50;99.90;;;;;;5041887;28;20026;-83
2021/10/24 05:58:35;;;;;;;12.68;6.85;;;2.50;99.90;;;;;;5049454;28;20088;-84
2021/10/24 06:01:01;;;;;;;14.05;8.20;;;2.60;99.90;;;;;;5046942;28;20509;-84
2021/10/24 06:03:26;;;;;;;14.85;7.55;;;2.60;99.90;;;;;;5040204;28;20033;-84
2021/10/24 06:05:52;;;;;;;14.77;7.43;;;2.80;99.90;;;;;;5020068;28;20498;-85
2021/10/24 06:08:21;;;;;;;13.48;6.97;;;3.40;99.90;;;;;;5012664;28;20022;-84
2021/10/24 06:10:48;;;;;;;14.40;7.30;;;4.70;99.90;;;;;;5016152;28;20049;-85
2021/10/24 06:13:14;;;;;;;15.77;6.53;;;2.70;99.90;;;;;;5017776;28;20458;-87
2021/10/24 06:15:40;;;;;;;8.40;5.90;;;2.70;99.90;;;;;;5017041;28;20061;-83
2021/10/24 06:18:07;;;;;;;9.73;6.20;;;3.60;99.90;;;;;;5018877;28;20085;-83
2021/10/24 06:20:33;;;;;;;10.55;6.10;;;2.60;99.90;;;;;;5019601;28;20505;-82
2021/10/24 06:22:59;;;;;;;11.20;4.95;;;2.60;99.90;;;;;;5021255;28;20034;-82
2021/10/24 06:25:25;;;;;;;12.43;5.50;;;5.00;99.90;;;;;;5026622;28;20048;-82
2021/10/24 06:27:51;;;;;;;10.20;5.07;;;2.80;99.90;;;;;;5033368;28;20029;-80
2021/10/24 06:30:22;;;;;;;9.23;5.22;;;2.80;99.90;;;;;;5030775;28;20061;-82
2021/10/24 06:32:49;;;;;;;9.07;5.18;;;3.60;99.90;;;;;;5044774;28;20148;-82
2021/10/24 06:35:16;;;;;;;18.25;8.68;;;3.00;99.90;;;;;;5041827;28;20040;-82
2021/10/24 06:37:44;;;;;;;16.23;7.28;;;3.10;99.90;;;;;;5040755;28;20053;-81
2021/10/24 06:40:11;;;;;;;12.43;5.30;;;3.10;99.90;;;;;;5025443;28;20089;-82
2021/10/24 06:42:37;;;;;;;22.92;11.13;;;3.20;99.90;;;;;;5025108;28;20030;-79
2021/10/24 06:45:05;;;;;;;13.95;7.85;;;3.30;99.90;;;;;;5023520;28;20490;-81
2021/10/24 06:47:31;;;;;;;9.48;5.88;;;3.30;99.90;;;;;;5021712;28;20037;-80
2021/10/24 06:49:57;;;;;;;9.90;5.28;;;3.40;99.90;;;;;;5022043;28;20026;-80
2021/10/24 06:52:22;;;;;;;9.45;4.95;;;4.00;99.90;;;;;;5043745;28;20033;-80
2021/10/24 06:54:48;;;;;;;8.30;4.80;;;3.60;99.90;;;;;;5044749;28;20033;-80
2021/10/24 06:57:14;;;;;;;12.75;4.90;;;3.70;99.90;;;;;;5042739;28;20493;-81
2021/10/24 06:59:42;;;;;;;9.25;4.63;;;3.70;99.90;;;;;;5032697;28;20125;-80
2021/10/24 07:02:08;;;;;;;9.07;4.80;;;3.90;99.90;;;;;;5019302;28;20049;-80
2021/10/24 07:04:34;;;;;;;8.48;4.40;;;4.10;99.90;;;;;;5020214;28;20033;-79
2021/10/24 07:07:00;;;;;;;12.93;5.63;;;4.00;99.90;;;;;;5025777;28;20034;-79
2021/10/24 07:09:26;;;;;;;9.60;4.75;;;6.40;99.90;;;;;;5025452;28;20032;-79
2021/10/24 07:11:52;;;;;;;10.18;5.03;;;4.20;99.90;;;;;;5042211;28;20029;-80
2021/10/24 07:14:17;;;;;;;12.80;4.43;;;4.50;99.90;;;;;;5037146;28;20038;-81
2021/10/24 07:16:43;;;;;;;9.75;4.32;;;4.30;99.90;;;;;;5037216;28;20033;-80
2021/10/24 07:19:08;;;;;;;9.88;4.13;;;4.80;99.90;;;;;;5037583;28;20231;-81
2021/10/24 07:21:35;;;;;;;11.07;4.90;;;4.60;99.90;;;;;;5036550;28;20036;-80
2021/10/24 07:24:01;;;;;;;10.40;4.25;;;4.50;99.90;;;;;;5038196;28;20025;-80
2021/10/24 07:26:27;;;;;;;9.90;4.63;;;4.60;99.90;;;;;;5037518;28;20121;-80
2021/10/24 07:28:52;;;;;;;10.20;4.10;;;4.80;99.90;;;;;;5037996;28;20040;-81
2021/10/24 07:31:18;;;;;;;12.35;4.72;;;4.90;99.90;;;;;;5037933;28;20084;-81
2021/10/24 07:33:43;;;;;;;9.27;3.88;;;5.00;99.90;;;;;;5035029;28;20057;-80
2021/10/24 07:36:09;;;;;;;8.05;3.85;;;5.00;99.90;;;;;;5022382;28;20026;-80
2021/10/24 07:38:35;;;;;;;7.93;4.18;;;5.10;99.90;;;;;;5021936;28;20037;-80
2021/10/24 07:41:00;;;;;;;8.27;4.20;;;5.20;99.90;;;;;;5018618;28;20026;-81
2021/10/24 07:43:26;;;;;;;13.32;5.15;;;5.30;99.90;;;;;;5018668;28;20045;-80
2021/10/24 07:45:53;;;;;;;9.38;4.72;;;5.40;99.90;;;;;;5016158;28;20022;-80
2021/10/24 07:48:21;;;;;;;9.63;4.78;;;5.60;99.90;;;;;;5018668;28;20033;-80
2021/10/24 07:50:48;;;;;;;10.07;4.80;;;5.60;99.90;;;;;;5016142;28;20022;-81
2021/10/24 07:53:14;;;;;;;9.98;4.72;;;5.60;99.90;;;;;;5017846;28;20026;-80
2021/10/24 07:55:40;;;;;;;7.72;4.38;;;6.80;99.90;;;;;;5024724;28;20114;-81
2021/10/24 07:58:06;;;;;;;10.00;4.40;;;5.90;99.90;;;;;;5037713;28;20108;-80
2021/10/24 08:00:32;;;;;;;10.63;3.97;;;6.20;99.90;;;;;;5036827;28;20033;-81
2021/10/24 08:02:58;;;;;;;11.25;4.10;;;;;;;;;;5037443;28;20053;-81
2021/10/24 08:05:24;;;;;;;10.27;4.18;;;;;;;;;;5037560;28;20017;-79
2021/10/24 08:07:50;;;;;;;7.20;3.70;;;;;;;;;;5028343;28;20030;-81
2021/10/24 08:10:16;;;;;;;8.85;4.40;;;;;;;;;;5016588;28;20036;-81
2021/10/24 08:12:43;;;;;;;5.70;3.42;;;;;;;;;;5017342;28;20026;-81
2021/10/24 08:15:10;;;;;;;8.38;3.83;;;;;;;;;;5017716;28;20398;-81
2021/10/24 08:17:36;;;;;;;7.47;3.40;;;;;;;;;;5032350;28;20117;-79
2021/10/24 08:20:03;;;;;;;7.07;3.05;;;;;;;;;;5017392;28;20068;-81
2021/10/24 08:22:31;;;;;;;5.60;2.83;;;;;;;;;;5021473;28;20220;-81
2021/10/24 08:24:57;;;;;;;9.05;3.28;;;;;;;;;;5030797;28;20029;-80
2021/10/24 08:27:23;;;;;;;7.03;3.10;;;;;;;;;;5016357;28;20077;-80
2021/10/24 08:29:49;;;;;;;7.82;2.88;;;;;;;;;;5015927;28;20688;-81
2021/10/24 08:32:15;;;;;;;8.98;3.22;;;6.20;99.90;;;;;;5022633;28;20169;-79
2021/10/24 08:34:41;;;;;;;9.35;3.30;;;;;;;;;;5017671;28;20061;-80
2021/10/24 08:37:08;;;;;;;6.57;2.70;;;;;;;;;;5016787;28;20026;-80
2021/10/24 08:39:35;;;;;;;5.57;2.90;;;;;;;;;;5014633;28;20026;-81
2021/10/24 08:42:02;;;;;;;4.75;2.53;;;;;;;;;;5016524;28;20032;-80
2021/10/24 08:44:28;;;;;;;4.93;2.58;;;;;;;;;;5015076;28;20084;-81
2021/10/24 08:46:55;;;;;;;7.95;3.17;;;;;;;;;;5015633;28;20042;-81
2021/10/24 08:49:21;;;;;;;8.55;2.40;;;12.50;99.90;;;;;;5015767;28;20823;-81
2021/10/24 08:51:48;;;;;;;5.63;2.30;;;;;;;;;;5027811;28;20034;-81
2021/10/24 08:54:14;;;;;;;5.20;2.17;;;;;;;;;;5036135;28;20040;-81
2021/10/24 08:56:40;;;;;;;6.32;2.53;;;;;;;;;;5036228;28;20036;-81
2021/10/24 08:59:07;;;;;;;4.70;2.40;;;;;;;;;;5035701;28;20086;-80
2021/10/24 09:01:33;;;;;;;4.40;2.50;;;;;;;;;;5035051;28;20025;-81
2021/10/24 09:04:13;;;;;;;4.57;2.08;;;;;;;;;;5034477;28;20036;-80
2021/10/24 09:06:51;;;;;;;8.55;2.55;;;;;;;;;;5036873;28;20033;-80
2021/10/24 09:09:19;;;;;;;4.10;1.90;;;;;;;;;;4998917;28;20076;-81
2021/10/24 09:11:56;;;;;;;4.00;2.40;;;;;;;;;;5000203;28;20042;-81
2021/10/24 09:14:38;;;;;;;5.28;2.45;;;;;;;;;;5005871;28;20040;-81
2021/10/24 09:17:24;;;;;;;6.05;2.30;;;;;;;;;;5014986;28;20376;-82
2021/10/24 09:19:57;;;;;;;4.75;2.45;;;;;;;;;;5032942;28;20037;-81
2021/10/24 09:22:25;;;;;;;5.20;2.35;;;;;;;;;;5021407;28;20088;-82
2021/10/24 09:25:12;;;;;;;5.35;2.38;;;;;;;;;;4998358;28;20034;-82
2021/10/24 09:27:47;;;;;;;6.68;3.13;;;;;;;;;;4997330;28;20027;-82
2021/10/24 09:30:16;;;;;;;5.05;2.20;;;;;;;;;;4996370;28;20030;-82
2021/10/24 09:32:56;;;;;;;5.60;2.72;;;;;;;;;;4999469;28;20077;-81
2021/10/24 09:35:24;;;;;;;8.07;3.63;;;;;;;;;;5019283;28;20033;-81
2021/10/24 09:37:50;;;;;;;4.75;2.13;;;15.00;96.20;;;;;;5020230;28;20042;-82
2021/10/24 09:40:25;;;;;;;5.85;2.72;;;20.90;68.10;;;;;;5015386;28;20101;-82
2021/10/24 09:43:10;;;;;;;6.80;2.78;;;21.30;65.90;;;;;;5015635;28;20084;-81
2021/10/24 09:45:36;;;;;;;4.85;3.03;;;21.80;64.70;;;;;;5016138;28;20022;-82
2021/10/24 09:48:09;;;;;;;8.07;2.50;;;21.50;62.90;;;;;;5031458;28;20035;-82
2021/10/24 09:50:40;;;;;;;3.83;2.30;;;21.20;64.90;;;;;;5035407;28;20571;-81
2021/10/24 09:53:23;;;;;;;9.10;3.20;;;21.10;65.30;;;;;;5035799;28;20044;-82
2021/10/24 09:55:52;;;;;;;5.03;2.60;;;21.10;63.50;;;;;;5035330;28;20436;-81
2021/10/24 09:58:18;;;;;;;5.18;2.42;;;21.40;63.00;;;;;;5035878;28;20478;-82
2021/10/24 10:00:45;;;;;;;6.03;2.20;;;21.50;62.80;;;;;;5037087;28;20029;-82
2021/10/24 10:03:11;;;;;;;3.88;2.13;;;21.50;62.70;;;;;;5038902;28;20033;-81
2021/10/24 10:05:38;;;;;;;5.95;2.80;;;21.40;64.30;;;;;;5039204;28;20029;-82
2021/10/24 10:08:09;;;;;;;4.93;2.15;;;21.90;62.60;;;;;;5010430;28;20037;-81
2021/10/24 10:10:49;;;;;;;8.82;4.13;;;22.30;60.60;;;;;;5019505;28;20076;-81
2021/10/24 10:13:22;;;;;;;5.18;2.85;;;22.50;59.30;;;;;;5025266;28;20038;-82
2021/10/24 10:15:49;;;;;;;6.07;2.40;;;22.70;62.00;;;;;;5038925;28;20125;-82
2021/10/24 10:18:16;;;;;;;4.43;2.58;;;22.40;59.10;;;;;;5025061;28;20049;-82
2021/10/24 10:21:00;;;;;;;5.10;2.42;;;21.90;60.00;;;;;;5017328;28;20025;-81
2021/10/24 10:23:39;;;;;;;6.60;2.60;;;21.70;60.90;;;;;;5019593;28;20433;-81
2021/10/24 10:26:43;;;;;;;4.75;2.10;;;22.10;59.90;;;;;;5018051;28;20030;-81
2021/10/24 10:29:15;;;;;;;3.88;2.08;;;22.10;59.60;;;;;;5019089;28;20022;-81
2021/10/24 10:32:01;;;;;;;5.53;2.17;;;22.80;58.50;;;;;;5018440;28;20117;-80
2021/10/24 10:34:27;;;;;;;3.45;1.60;;;23.20;57.40;;;;;;5018581;28;20475;-80
2021/10/24 10:36:55;;;;;;;3.33;1.80;;;23.70;56.20;;;;;;5018211;28;20034;-80
2021/10/24 10:39:30;;;;;;;3.55;1.92;;;24.00;55.10;;;;;;5018232;28;20029;-81
2021/10/24 10:41:57;;;;;;;6.63;2.22;;;24.00;55.10;;;;;;5018663;28;20088;-80
2021/10/24 10:44:23;;;;;;;4.30;2.10;;;;;;;;;;5018811;28;20022;-80
2021/10/24 10:46:49;;;;;;;4.07;1.88;;;;;;;;;;5036425;28;20520;-80
2021/10/24 10:49:25;;;;;;;3.63;1.98;;;;;;;;;;5038708;28;20034;-80
2021/10/24 10:51:51;;;;;;;3.03;2.22;;;;;;;;;;5034866;28;20021;-80
2021/10/24 10:54:17;;;;;;;4.28;1.90;;;;;;;;;;5023054;28;20038;-79
2021/10/24 10:56:44;;;;;;;4.22;1.90;;;;;;;;;;5025092;28;20502;-80
2021/10/24 10:59:28;;;;;;;5.32;2.55;;;24.20;54.60;;;;;;5017694;28;20095;-79
2021/10/24 11:01:54;;;;;;;5.80;1.80;;;21.60;60.00;;;;;;5019165;28;20025;-80
2021/10/24 11:04:21;;;;;;;5.60;2.10;;;22.10;61.70;;;;;;5039174;28;20123;-79
2021/10/24 11:06:54;;;;;;;4.60;1.77;;;21.60;60.00;;;;;;5042468;28;20628;-82
2021/10/24 11:09:47;;;;;;;3.88;2.20;;;21.00;59.30;;;;;;5024905;28;20018;-82
2021/10/24 11:12:38;;;;;;;5.13;2.40;;;20.80;60.30;;;;;;5019648;28;20076;-79
2021/10/24 11:15:14;;;;;;;7.47;2.55;;;20.70;61.20;;;;;;5040370;28;20021;-78
2021/10/24 11:17:42;;;;;;;3.08;1.90;;;21.30;63.40;;;;;;5037721;28;20099;-80
2021/10/24 11:20:20;;;;;;;3.38;1.98;;;20.70;62.00;;;;;;5026963;28;20026;-81
2021/10/24 11:23:02;;;;;;;4.10;1.90;;;19.90;63.50;;;;;;5019790;28;20053;-82
2021/10/24 11:25:38;;;;;;;5.50;1.85;;;19.40;64.60;;;;;;5021178;28;20036;-82
2021/10/24 11:28:26;;;;;;;2.95;1.80;;;18.80;66.40;;;;;;5019400;28;20022;-82
2021/10/24 11:31:06;;;;;;;5.00;2.30;;;18.20;67.00;;;;;;5020830;28;20018;-78
2021/10/24 11:33:51;;;;;;;3.42;1.83;;;17.90;69.30;;;;;;5019389;28;20053;-81
2021/10/24 11:36:25;;;;;;;4.15;2.03;;;17.40;69.20;;;;;;5019640;28;20141;-83
2021/10/24 11:39:09;;;;;;;4.20;2.10;;;17.30;70.10;;;;;;5017591;28;20030;-83
2021/10/24 11:41:35;;;;;;;5.50;2.05;;;;;;;;;;5028043;28;20405;-80
2021/10/24 11:44:09;;;;;;;5.93;2.13;;;;;;;;;;5038575;28;20497;-82
2021/10/24 11:46:35;;;;;;;7.60;2.38;;;;;;;;;;5039093;28;20085;-82
2021/10/24 11:49:03;;;;;;;5.65;2.13;;;;;;;;;;5039084;28;20541;-83
2021/10/24 11:51:30;;;;;;;4.53;2.35;;;;;;;;;;5037682;28;20045;-83
2021/10/24 11:53:56;;;;;;;6.10;2.60;;;;;;;;;;5037166;28;20033;-84
2021/10/24 11:59:13;;;;;;;7.40;2.40;;;;;;;;;;5038969;28;20032;-81
2021/10/24 12:01:39;;;;;;;5.97;2.20;;;;;;;;;;5038461;28;20032;-82
2021/10/24 12:04:06;;;;;;;4.05;2.22;;;;;;;;;;5007353;28;20030;-80
2021/10/24 12:06:50;;;;;;;6.40;2.45;;;;;;;;;;5017571;28;20490;-82
2021/10/24 12:09:36;;;;;;;6.03;2.20;;;;;;;;;;5014570;28;20048;-83
2021/10/24 12:12:08;;;;;;;5.90;2.55;;;;;;;;;;5038584;28;20067;-82
2021/10/24 12:14:47;;;;;;;5.63;2.28;;;;;;;;;;5023231;28;20033;-82
2021/10/24 12:17:27;;;;;;;6.47;2.60;;;;;;;;;;5018833;28;20613;-82
2021/10/24 12:20:13;;;;;;;3.83;2.03;;;;;;;;;;5018412;28;20022;-82
2021/10/24 12:22:40;;;;;;;4.35;2.15;;;;;;;;;;5018031;28;20025;-83
2021/10/24 12:25:09;;;;;;;5.57;2.42;;;;;;;;;;5017408;28;20080;-82
2021/10/24 12:27:37;;;;;;;7.65;2.15;;;;;;;;;;5017168;28;20117;-81
2021/10/24 12:30:03;;;;;;;6.97;2.25;;;;;;;;;;5017450;28;20044;-83
2021/10/24 12:32:30;;;;;;;6.10;2.20;;;;;;;;;;5017244;28;20072;-82
2021/10/24 12:35:01;;;;;;;5.90;2.42;;;;;;;;;;5016339;28;20108;-82
2021/10/24 12:37:27;;;;;;;7.38;2.65;;;;;;;;;;5017530;28;20535;-83
2021/10/24 12:40:12;;;;;;;5.47;2.17;;;;;;;;;;5020197;28;20073;-83
2021/10/24 12:42:38;;;;;;;3.47;2.10;;;;;;;;;;4998220;28;20585;-82
2021/10/24 12:45:14;;;;;;;6.28;2.63;;;;;;;;;;4997885;28;20030;-81
2021/10/24 12:47:52;;;;;;;6.32;2.50;;;;;;;;;;4997080;28;20113;-82
2021/10/24 12:50:27;;;;;;;5.43;3.20;;;;;;;;;;5008574;28;20017;-80
2021/10/24 12:53:13;;;;;;;4.15;2.10;;;;;;;;;;5016184;28;20029;-82
2021/10/24 12:55:39;;;;;;;6.13;2.85;;;;;;;;;;5016604;28;20029;-81
2021/10/24 12:58:06;;;;;;;4.88;2.40;;;;;;;;;;5015022;28;20080;-82
2021/10/24 13:00:33;;;;;;;6.25;2.53;;;;;;;;;;5013173;28;20053;-81
2021/10/24 13:03:00;;;;;;;7.30;2.30;;;;;;;;;;5015098;28;20053;-81
2021/10/24 13:05:26;;;;;;;7.53;2.60;;;;;;;;;;5014676;28;20101;-82
2021/10/24 13:07:53;;;;;;;6.45;2.72;;;;;;;;;;5005825;28;20026;-81
2021/10/24 13:10:19;;;;;;;6.88;2.15;;;;;;;;;;4993336;28;20018;-81
2021/10/24 13:12:45;;;;;;;5.53;2.38;;;;;;;;;;5017573;28;20108;-81
2021/10/24 13:15:11;;;;;;;5.20;2.03;;;;;;;;;;5050855;28;20052;-80
2021/10/24 13:17:37;;;;;;;5.47;2.83;;;;;;;;;;5057212;28;20026;-77
2021/10/24 13:20:04;;;;;;;6.75;2.35;;;;;;;;;;5034591;28;20402;-82
2021/10/24 13:25:15;;;;;;;5.10;2.22;;;;;;;;;;5019558;28;20044;-82
2021/10/24 13:27:41;;;;;;;5.72;2.97;;;;;;;;;;5015723;28;20505;-81
2021/10/24 13:30:07;;;;;;;6.53;2.55;;;;;;;;;;5025794;28;20116;-81
2021/10/24 13:32:33;;;;;;;4.35;2.30;;;;;;;;;;5034833;28;20033;-81
2021/10/24 13:35:01;;;;;;;3.70;1.90;;;;;;;;;;5028844;28;20030;-82
2021/10/24 13:37:27;;;;;;;3.45;1.90;;;;;;;;;;5020258;28;20034;-83